This is the latest recevied weather packets stored in our database for station/object OH7GGX-14. If no packets are shown the sender has not sent any weather packets the latest 10 day(s).
| Time | Temp. | Humidity | Pressure | Rain* | Wind** | Luminosity | Snow |
|---|---|---|---|---|---|---|---|
| 1777993893 | 6.67° C | 80% | 1003.4 hPa | 0 mm | - | - | - |
| 1777993293 | 7.22° C | 82% | 1003.3 hPa | 0 mm | - | - | - |
| 1777992693 | 7.22° C | 80% | 1003.2 hPa | 0 mm | - | - | - |
| 1777992093 | 7.22° C | 77% | 1003.4 hPa | 0 mm | - | - | - |
| 1777991493 | 7.78° C | 77% | 1003.1 hPa | 0 mm | - | - | - |
| 1777990893 | 7.78° C | 80% | 1003 hPa | 0 mm | - | - | - |
| 1777989693 | 7.22° C | 88% | 1003 hPa | 0 mm | - | - | - |
| 1777989093 | 7.22° C | 84% | 1003.1 hPa | 0 mm | - | - | - |
| 1777988493 | 7.78° C | 74% | 1002.7 hPa | 0 mm | - | - | - |
| 1777987893 | 8.33° C | 74% | 1002.4 hPa | 0 mm | - | - | - |
| 1777987293 | 8.33° C | 73% | 1002.3 hPa | 0 mm | - | - | - |
| 1777986693 | 7.78° C | 85% | 1002.2 hPa | 0 mm | - | - | - |
| 1777986093 | 7.78° C | 88% | 1002.1 hPa | 0 mm | - | - | - |
| 1777985493 | 7.78° C | 91% | 1002 hPa | 0 mm | - | - | - |
| 1777984893 | 7.22° C | 95% | 1001.9 hPa | 0 mm | - | - | - |
| 1777984293 | 7.22° C | 99% | 1001.8 hPa | 0 mm | - | - | - |
| 1777983693 | 7.22° C | 99% | 1001.6 hPa | 0 mm | - | - | - |
| 1777983093 | 7.22° C | 99% | 1001.5 hPa | 0 mm | - | - | - |
| 1777982493 | 6.67° C | 99% | 1001.3 hPa | 0 mm | - | - | - |
| 1777981893 | 6.11° C | 99% | 1001.1 hPa | 0 mm | - | - | - |
| 1777981293 | 6.11° C | 99% | 1001.3 hPa | 0 mm | - | - | - |
| 1777980693 | 6.67° C | 99% | 1001.1 hPa | 0 mm | - | - | - |
| 1777980093 | 6.67° C | 99% | 1001 hPa | 0.51 mm | - | - | - |
| 1777979493 | 6.67° C | 99% | 1000.9 hPa | 1.52 mm | - | - | - |
| 1777978893 | 6.67° C | 99% | 1000.6 hPa | 2.03 mm | - | - | - |
* Rain latest hour (hover to see other rain measurements)
** Current wind speed in m/s (hover to see current wind gust speed)